• Join FlightAware (Why Join?)
  • Login
  • US Flag 
01:41PM EDT


 

Airport Tracker/Info


-or-


 

Live Flight TrackerFlight Track Log ✈ ASQ6115 ✈ 07-06-2013 ✈ KMFE - KIAH

Flight Track Log - Related Links

Times and Time Zones

All times are in EDT time to prevent confusion due to time zone crossing. See the ASQ6115 flight status page for this flight to view local times or setup timezone preferences in your user account.

Time Position Orientation Groundspeed Altitude Reporting Facility
EDT Latitude Longitude Course Direction KTS MPH feet Rate Location/Type
03:50PM 26.1706 -98.1925 68° East 191 220 2,100  Level Houston Center
03:51PM 26.2411 -98.1833 North 245 282 4,000 1,920 Climbing Houston Center
03:52PM 26.3078 -98.1769 North 266 306 6,000 2,040 Climbing Houston Center
03:53PM 26.4339 -98.1081 24° Northeast  Level FlightAware Approximate
03:53PM 26.4042 -98.1658 North 276 318 8,500  Level Houston Center
03:54PM 26.5000 -98.0750 24° Northeast  Level FlightAware Approximate
03:54PM 26.4872 -98.1594 North 284 327 10,700  Level Houston Center
03:55PM 26.5683 -98.1556 North 289 333 12,600 1,980 Climbing Houston Center
03:56PM 26.6586 -98.1522 North 300 345 14,800 1,740 Climbing Houston Center
03:57PM 26.7425 -98.1433 North 301 346 16,300 1,500 Climbing Houston Center
03:58PM 26.8306 -98.1264 10° North 317 365 18,000 1,680 Climbing Houston Center
03:59PM 26.9178 -98.1097 10° North 311 358 19,800 1,620 Climbing Houston Center
04:00PM 27.0064 -98.0903 11° North 322 371 21,400 1,440 Climbing Houston Center
04:01PM 27.0714 -98.0147 46° Northeast 340 391 22,900 1,500 Climbing Houston Center
04:02PM 27.1283 -97.9281 54° Northeast 347 399 24,500 1,620 Climbing Houston Center
04:03PM 27.2247 -97.8589 33° Northeast 343 395 26,300 1,200 Climbing Houston Center
04:04PM 27.3047 -97.8014 33° Northeast 343 395 27,000 300 Climbing Houston Center
04:05PM 27.3972 -97.7347 33° Northeast 387 445 27,000  Level Houston Center
04:06PM 27.4958 -97.6656 32° Northeast 415 478 27,000 -60 Level Houston Center
04:07PM 27.5981 -97.5919 33° Northeast 433 498 26,900  Descending Houston Center
04:08PM 27.6958 -97.5208 33° Northeast 422 486 27,000  Climbing Houston Center
04:09PM 27.8164 -97.4325 33° Northeast 431 496 27,000  Level Houston Center
04:10PM 27.9250 -97.3564 32° Northeast 451 519 27,000  Level Houston Center
04:11PM 28.0433 -97.2708 33° Northeast 461 531 27,000  Level Houston Center
04:12PM 28.1539 -97.1908 33° Northeast 469 540 27,000 -60 Level Houston Center
04:13PM 28.2647 -97.1117 32° Northeast 471 542 26,900  Descending Houston Center
04:15PM 28.3753 -97.0294 33° Northeast 475 547 27,000  Climbing Houston Center
04:16PM 28.4869 -96.9506 32° Northeast 474 545 27,000  Level Houston Center
04:17PM 28.6194 -96.8528 33° Northeast 474 545 27,000 -60 Level Houston Center
04:18PM 28.7294 -96.7711 33° Northeast 473 544 26,900 -1,080 Descending Houston Center
04:19PM 28.8397 -96.6914 32° Northeast 472 543 24,800 -2,040 Descending Houston Center
04:20PM 28.9394 -96.6181 33° Northeast 432 497 22,800 -1,980 Descending Houston Center
04:21PM 29.0344 -96.5486 33° Northeast 412 474 20,800 -2,100 Descending Houston Center
04:22PM 29.1464 -96.4650 33° Northeast 405 466 18,500 -2,100 Descending Houston Center
04:23PM 29.2419 -96.3931 33° Northeast 412 474 16,500 -1,980 Descending Houston Center
04:23PM 29.2833 -96.3636 32° Northeast 417 480 15,700 -1,860 Descending Houston Center
04:24PM 29.3392 -96.3222 33° Northeast 416 479 14,600 -1,860 Descending Houston Center
04:25PM 29.4317 -96.2522 33° Northeast 406 467 12,600 -1,380 Descending Houston Center
04:26PM 29.5181 -96.1889 33° Northeast 377 434 12,000 -300 Descending Houston Center
04:27PM 29.5922 -96.0750 53° Northeast 392 451 12,000 -600 Level Houston Center
04:28PM 29.6425 -95.9756 60° Northeast 391 450 10,800 -960 Descending Houston Center
04:29PM 29.7064 -95.8478 60° Northeast 382 440 10,000 -360 Descending Houston Center
04:30PM 29.7550 -95.7511 60° Northeast 373 429 10,100 -60 Climbing Houston Center
04:31PM 29.7961 -95.6717 59° Northeast 289 333 9,900 -1,260 Descending Houston Center
04:32PM 29.8369 -95.5897 60° Northeast 294 338 7,700 -1,800 Descending Houston Center
04:33PM 29.8814 -95.5003 60° Northeast 288 331 6,100 -780 Descending Houston Center
04:34PM 29.8958 -95.4044 80° East 276 318 6,000 -60 Descending Houston Center
04:35PM 29.8964 -95.3211 90° East 282 325 6,000  Level Houston Center
04:36PM 29.8958 -95.2431 90° East 242 278 6,000 -240 Level Houston Center
04:36PM 29.8972 -95.2217 86° East 258 297 5,800 -2,280 Descending Houston Center
04:37PM 29.8964 -95.1586 91° East 248 285 3,500 -2,040 Descending Houston Center
04:38PM 29.9447 -95.1383 20° North 215 247 2,000 -780 Descending Houston Center
04:39PM 29.9733 -95.1975 299° West 212 244 2,000 -300 Level Houston Center
04:40PM 29.9767 -95.2550 274° West 140 161 1,500 -360 Descending Houston Center
04:40PM 29.9775 -95.2608 279° West 190 219 1,600 -960 Climbing Houston Center
04:41PM 29.9789 -95.3083 272° West 161 185 300 -1,260 Descending Houston Center